sensor_id;sensor_type;location;lat;lon;timestamp;pressure;altitude;pressure_sealevel;temperature;humidity
47430;BME280;33181;49.246;7.372;2023-08-24T00:02:06;98956.19;;;22.18;77.84
47430;BME280;33181;49.246;7.372;2023-08-24T00:04:33;98947.69;;;22.14;77.98
47430;BME280;33181;49.246;7.372;2023-08-24T00:06:59;98953.72;;;22.16;77.83
47430;BME280;33181;49.246;7.372;2023-08-24T00:09:26;98955.16;;;22.19;77.68
47430;BME280;33181;49.246;7.372;2023-08-24T00:11:52;98952.53;;;22.26;77.55
47430;BME280;33181;49.246;7.372;2023-08-24T00:14:18;98956.88;;;22.27;77.43
47430;BME280;33181;49.246;7.372;2023-08-24T00:16:44;98953.44;;;22.33;77.33
47430;BME280;33181;49.246;7.372;2023-08-24T00:19:10;98950.16;;;22.37;76.68
47430;BME280;33181;49.246;7.372;2023-08-24T00:21:36;98952.44;;;22.40;76.56
47430;BME280;33181;49.246;7.372;2023-08-24T00:24:02;98949.38;;;22.43;76.43
47430;BME280;33181;49.246;7.372;2023-08-24T00:26:28;98945.50;;;22.46;76.30
47430;BME280;33181;49.246;7.372;2023-08-24T00:28:53;98937.06;;;22.49;76.16
47430;BME280;33181;49.246;7.372;2023-08-24T00:31:19;98942.41;;;22.49;75.90
47430;BME280;33181;49.246;7.372;2023-08-24T00:33:45;98934.19;;;22.51;76.13
47430;BME280;33181;49.246;7.372;2023-08-24T00:36:11;98938.53;;;22.52;75.94
47430;BME280;33181;49.246;7.372;2023-08-24T00:38:36;98942.41;;;22.49;75.73
47430;BME280;33181;49.246;7.372;2023-08-24T00:41:02;98949.03;;;22.53;75.89
47430;BME280;33181;49.246;7.372;2023-08-24T00:43:28;98949.03;;;22.53;75.68
47430;BME280;33181;49.246;7.372;2023-08-24T00:45:59;98954.22;;;22.55;75.39
47430;BME280;33181;49.246;7.372;2023-08-24T00:48:26;98951.53;;;22.55;75.80
47430;BME280;33181;49.246;7.372;2023-08-24T00:50:59;98958.09;;;22.52;75.41
47430;BME280;33181;49.246;7.372;2023-08-24T00:53:25;98957.44;;;22.50;75.36
47430;BME280;33181;49.246;7.372;2023-08-24T00:55:52;98953.25;;;22.41;74.99
47430;BME280;33181;49.246;7.372;2023-08-24T00:58:18;98965.41;;;22.37;75.53
47430;BME280;33181;49.246;7.372;2023-08-24T01:00:45;98951.75;;;22.32;75.78
47430;BME280;33181;49.246;7.372;2023-08-24T01:03:13;98954.63;;;22.30;75.81
47430;BME280;33181;49.246;7.372;2023-08-24T01:05:39;98955.03;;;22.27;75.98
47430;BME280;33181;49.246;7.372;2023-08-24T01:08:05;98958.53;;;22.28;75.88
47430;BME280;33181;49.246;7.372;2023-08-24T01:10:46;98964.91;;;22.27;75.96
47430;BME280;33181;49.246;7.372;2023-08-24T01:13:21;98973.44;;;22.37;75.61
47430;BME280;33181;49.246;7.372;2023-08-24T01:16:04;98965.44;;;22.43;74.85
47430;BME280;33181;49.246;7.372;2023-08-24T01:18:32;98974.50;;;22.42;74.31
47430;BME280;33181;49.246;7.372;2023-08-24T01:20:59;98971.00;;;22.42;74.58
47430;BME280;33181;49.246;7.372;2023-08-24T01:23:51;98965.41;;;22.37;74.29
47430;BME280;33181;49.246;7.372;2023-08-24T01:26:20;98958.13;;;22.31;74.24
47430;BME280;33181;49.246;7.372;2023-08-24T01:28:47;98962.38;;;22.18;74.21
47430;BME280;33181;49.246;7.372;2023-08-24T01:31:14;98955.28;;;22.11;75.06
47430;BME280;33181;49.246;7.372;2023-08-24T01:33:45;98954.31;;;21.97;75.38
47430;BME280;33181;49.246;7.372;2023-08-24T01:36:14;98956.06;;;21.83;76.10
47430;BME280;33181;49.246;7.372;2023-08-24T01:38:40;98959.56;;;21.84;76.65
47430;BME280;33181;49.246;7.372;2023-08-24T01:43:36;98962.00;;;21.79;76.79
47430;BME280;33181;49.246;7.372;2023-08-24T01:46:04;98961.00;;;21.65;77.36
47430;BME280;33181;49.246;7.372;2023-08-24T01:48:31;98956.47;;;21.44;77.98
47430;BME280;33181;49.246;7.372;2023-08-24T01:50:58;98951.94;;;21.29;79.09
47430;BME280;33181;49.246;7.372;2023-08-24T01:53:27;98950.69;;;21.25;79.33
47430;BME280;33181;49.246;7.372;2023-08-24T01:55:53;98950.22;;;21.22;79.57
47430;BME280;33181;49.246;7.372;2023-08-24T01:58:20;98936.03;;;21.21;79.85
47430;BME280;33181;49.246;7.372;2023-08-24T02:00:45;98934.28;;;21.28;79.99
47430;BME280;33181;49.246;7.372;2023-08-24T02:03:11;98930.50;;;21.38;79.85
47430;BME280;33181;49.246;7.372;2023-08-24T02:05:37;98925.84;;;21.46;79.33
47430;BME280;33181;49.246;7.372;2023-08-24T02:08:03;98914.41;;;21.52;79.18
47430;BME280;33181;49.246;7.372;2023-08-24T02:10:29;98918.16;;;21.58;78.99
47430;BME280;33181;49.246;7.372;2023-08-24T02:12:55;98885.69;;;21.40;78.54
47430;BME280;33181;49.246;7.372;2023-08-24T02:15:21;98861.66;;;20.89;81.46
47430;BME280;33181;49.246;7.372;2023-08-24T02:17:46;98848.09;;;20.69;82.90
47430;BME280;33181;49.246;7.372;2023-08-24T02:20:12;98834.38;;;20.57;82.53
47430;BME280;33181;49.246;7.372;2023-08-24T02:22:38;98813.81;;;20.43;81.66
47430;BME280;33181;49.246;7.372;2023-08-24T02:25:05;98806.09;;;20.48;80.50
47430;BME280;33181;49.246;7.372;2023-08-24T02:27:32;98802.16;;;20.44;83.13
47430;BME280;33181;49.246;7.372;2023-08-24T02:29:58;98785.78;;;20.32;84.23
47430;BME280;33181;49.246;7.372;2023-08-24T02:32:24;98802.44;;;20.34;84.39
47430;BME280;33181;49.246;7.372;2023-08-24T02:34:50;98800.16;;;20.31;84.74
47430;BME280;33181;49.246;7.372;2023-08-24T02:37:16;98806.84;;;20.42;83.87
47430;BME280;33181;49.246;7.372;2023-08-24T02:39:42;98812.56;;;20.38;84.39
47430;BME280;33181;49.246;7.372;2023-08-24T02:42:11;98802.91;;;20.37;83.85
47430;BME280;33181;49.246;7.372;2023-08-24T02:44:36;98791.31;;;20.30;84.24
47430;BME280;33181;49.246;7.372;2023-08-24T02:47:02;98781.09;;;20.34;84.34
47430;BME280;33181;49.246;7.372;2023-08-24T02:49:28;98780.53;;;20.38;84.05
47430;BME280;33181;49.246;7.372;2023-08-24T02:51:54;98779.25;;;20.49;83.55
47430;BME280;33181;49.246;7.372;2023-08-24T02:54:20;98770.50;;;20.41;83.44
47430;BME280;33181;49.246;7.372;2023-08-24T02:56:45;98771.91;;;20.36;84.18
47430;BME280;33181;49.246;7.372;2023-08-24T02:59:11;98762.69;;;20.39;83.61
47430;BME280;33181;49.246;7.372;2023-08-24T03:01:37;98766.28;;;20.31;83.48
47430;BME280;33181;49.246;7.372;2023-08-24T03:04:06;98768.31;;;20.29;83.31
47430;BME280;33181;49.246;7.372;2023-08-24T03:06:32;98782.28;;;20.31;83.48
47430;BME280;33181;49.246;7.372;2023-08-24T03:09:00;98775.47;;;20.44;83.17
47430;BME280;33181;49.246;7.372;2023-08-24T03:11:29;98781.00;;;20.57;82.54
47430;BME280;33181;49.246;7.372;2023-08-24T03:13:55;98782.16;;;20.69;82.12
47430;BME280;33181;49.246;7.372;2023-08-24T03:16:21;98780.47;;;20.83;81.24
47430;BME280;33181;49.246;7.372;2023-08-24T03:18:47;98783.69;;;20.93;80.58
47430;BME280;33181;49.246;7.372;2023-08-24T03:21:13;98780.03;;;21.01;79.75
47430;BME280;33181;49.246;7.372;2023-08-24T03:23:38;98793.28;;;21.09;78.85
47430;BME280;33181;49.246;7.372;2023-08-24T03:26:05;98796.66;;;21.18;78.36
47430;BME280;33181;49.246;7.372;2023-08-24T03:28:32;98789.28;;;21.20;77.03
47430;BME280;33181;49.246;7.372;2023-08-24T03:30:58;98777.75;;;20.98;76.73
47430;BME280;33181;49.246;7.372;2023-08-24T03:33:24;98771.25;;;20.86;77.51
47430;BME280;33181;49.246;7.372;2023-08-24T03:35:52;98778.44;;;20.85;78.16
47430;BME280;33181;49.246;7.372;2023-08-24T03:38:17;98773.03;;;20.78;77.86
47430;BME280;33181;49.246;7.372;2023-08-24T03:40:43;98772.44;;;20.83;77.77
47430;BME280;33181;49.246;7.372;2023-08-24T03:43:09;98774.44;;;20.96;77.96
47430;BME280;33181;49.246;7.372;2023-08-24T03:45:35;98780.50;;;21.04;77.48
47430;BME280;33181;49.246;7.372;2023-08-24T03:48:00;98783.88;;;21.13;77.58
47430;BME280;33181;49.246;7.372;2023-08-24T03:50:26;98778.16;;;21.16;77.10
47430;BME280;33181;49.246;7.372;2023-08-24T03:52:53;98775.41;;;21.10;77.29
47430;BME280;33181;49.246;7.372;2023-08-24T03:55:20;98766.97;;;21.06;77.39
47430;BME280;33181;49.246;7.372;2023-08-24T03:57:46;98757.53;;;21.10;76.57
47430;BME280;33181;49.246;7.372;2023-08-24T04:00:13;98756.94;;;21.15;76.26
47430;BME280;33181;49.246;7.372;2023-08-24T04:02:43;98754.34;;;21.21;76.31
47430;BME280;33181;49.246;7.372;2023-08-24T04:05:09;98744.56;;;21.28;76.13
47430;BME280;33181;49.246;7.372;2023-08-24T04:07:35;98754.00;;;21.31;75.97
47430;BME280;33181;49.246;7.372;2023-08-24T04:10:06;98752.66;;;21.35;76.19
47430;BME280;33181;49.246;7.372;2023-08-24T04:12:32;98758.06;;;21.42;76.30
47430;BME280;33181;49.246;7.372;2023-08-24T04:14:58;98765.25;;;21.41;75.98
47430;BME280;33181;49.246;7.372;2023-08-24T04:17:25;98758.31;;;21.47;75.94
47430;BME280;33181;49.246;7.372;2023-08-24T04:19:51;98760.97;;;21.47;75.59
47430;BME280;33181;49.246;7.372;2023-08-24T04:22:16;98769.00;;;21.47;75.73
47430;BME280;33181;49.246;7.372;2023-08-24T04:24:42;98772.66;;;21.46;75.73
47430;BME280;33181;49.246;7.372;2023-08-24T04:27:08;98780.25;;;21.42;75.38
47430;BME280;33181;49.246;7.372;2023-08-24T04:29:34;98787.72;;;21.47;75.67
47430;BME280;33181;49.246;7.372;2023-08-24T04:31:59;98795.72;;;21.47;75.97
47430;BME280;33181;49.246;7.372;2023-08-24T04:34:25;98810.34;;;21.51;75.92
47430;BME280;33181;49.246;7.372;2023-08-24T04:36:52;98819.84;;;21.54;75.16
47430;BME280;33181;49.246;7.372;2023-08-24T04:39:18;98836.94;;;21.59;75.33
47430;BME280;33181;49.246;7.372;2023-08-24T04:41:46;98869.66;;;21.61;74.65
47430;BME280;33181;49.246;7.372;2023-08-24T04:44:12;98884.06;;;21.60;74.58
47430;BME280;33181;49.246;7.372;2023-08-24T04:46:37;98901.47;;;21.56;75.00
47430;BME280;33181;49.246;7.372;2023-08-24T04:49:04;98914.72;;;21.43;74.80
47430;BME280;33181;49.246;7.372;2023-08-24T04:51:29;98937.03;;;21.20;75.85
47430;BME280;33181;49.246;7.372;2023-08-24T04:53:55;98945.16;;;21.12;76.67
47430;BME280;33181;49.246;7.372;2023-08-24T04:56:21;98961.41;;;20.81;75.55
47430;BME280;33181;49.246;7.372;2023-08-24T04:58:54;98959.56;;;20.81;75.04
47430;BME280;33181;49.246;7.372;2023-08-24T05:01:25;98964.34;;;20.86;74.66
47430;BME280;33181;49.246;7.372;2023-08-24T05:03:52;98961.78;;;20.78;74.28
47430;BME280;33181;49.246;7.372;2023-08-24T05:06:19;98965.16;;;20.87;75.01
47430;BME280;33181;49.246;7.372;2023-08-24T05:08:45;98947.13;;;20.74;73.42
47430;BME280;33181;49.246;7.372;2023-08-24T05:11:13;98931.16;;;20.51;74.90
47430;BME280;33181;49.246;7.372;2023-08-24T05:13:43;98914.16;;;20.37;74.39
47430;BME280;33181;49.246;7.372;2023-08-24T05:16:09;98914.03;;;20.30;75.48
47430;BME280;33181;49.246;7.372;2023-08-24T05:18:35;98918.44;;;20.23;75.70
47430;BME280;33181;49.246;7.372;2023-08-24T05:21:05;98908.34;;;20.33;75.30
47430;BME280;33181;49.246;7.372;2023-08-24T05:23:32;98900.91;;;20.44;75.09
47430;BME280;33181;49.246;7.372;2023-08-24T05:25:59;98885.72;;;20.44;74.88
47430;BME280;33181;49.246;7.372;2023-08-24T05:28:26;98877.34;;;20.47;75.18
47430;BME280;33181;49.246;7.372;2023-08-24T05:30:53;98880.44;;;20.36;75.01
47430;BME280;33181;49.246;7.372;2023-08-24T05:33:20;98878.22;;;20.40;75.04
47430;BME280;33181;49.246;7.372;2023-08-24T05:35:48;98864.19;;;20.31;75.37
47430;BME280;33181;49.246;7.372;2023-08-24T05:38:14;98854.03;;;20.26;76.06
47430;BME280;33181;49.246;7.372;2023-08-24T05:40:40;98836.03;;;20.28;76.21
47430;BME280;33181;49.246;7.372;2023-08-24T05:43:08;98844.47;;;20.32;75.82
47430;BME280;33181;49.246;7.372;2023-08-24T05:45:35;98844.94;;;20.50;75.39
47430;BME280;33181;49.246;7.372;2023-08-24T05:48:01;98834.19;;;20.58;74.60
47430;BME280;33181;49.246;7.372;2023-08-24T05:50:27;98823.69;;;20.57;74.86
47430;BME280;33181;49.246;7.372;2023-08-24T05:52:53;98826.56;;;20.55;74.82
47430;BME280;33181;49.246;7.372;2023-08-24T05:55:19;98820.75;;;20.52;74.99
47430;BME280;33181;49.246;7.372;2023-08-24T05:57:45;98825.09;;;20.53;74.89
47430;BME280;33181;49.246;7.372;2023-08-24T06:00:12;98823.50;;;20.73;74.61
47430;BME280;33181;49.246;7.372;2023-08-24T06:02:39;98825.44;;;20.65;74.01
47430;BME280;33181;49.246;7.372;2023-08-24T06:05:06;98825.16;;;20.74;73.50
47430;BME280;33181;49.246;7.372;2023-08-24T06:07:35;98818.66;;;20.83;73.17
47430;BME280;33181;49.246;7.372;2023-08-24T06:10:00;98830.53;;;20.96;73.04
47430;BME280;33181;49.246;7.372;2023-08-24T06:12:26;98835.41;;;21.28;72.55
47430;BME280;33181;49.246;7.372;2023-08-24T06:14:52;98836.53;;;21.62;71.15
47430;BME280;33181;49.246;7.372;2023-08-24T06:17:18;98840.03;;;21.84;69.69
47430;BME280;33181;49.246;7.372;2023-08-24T06:19:43;98851.06;;;22.03;69.53
47430;BME280;33181;49.246;7.372;2023-08-24T06:22:09;98858.75;;;22.40;68.50
47430;BME280;33181;49.246;7.372;2023-08-24T06:24:35;98869.38;;;22.62;67.10
47430;BME280;33181;49.246;7.372;2023-08-24T06:27:01;98867.25;;;22.92;65.87
47430;BME280;33181;49.246;7.372;2023-08-24T06:29:29;98868.41;;;23.18;65.65
47430;BME280;33181;49.246;7.372;2023-08-24T06:31:54;98865.75;;;23.38;65.38
47430;BME280;33181;49.246;7.372;2023-08-24T06:34:21;98852.16;;;23.52;64.50
47430;BME280;33181;49.246;7.372;2023-08-24T06:36:47;98854.41;;;23.35;63.89
47430;BME280;33181;49.246;7.372;2023-08-24T06:39:13;98848.38;;;23.20;64.25
47430;BME280;33181;49.246;7.372;2023-08-24T06:41:39;98847.47;;;22.93;65.35
47430;BME280;33181;49.246;7.372;2023-08-24T06:44:05;98852.88;;;23.06;65.09
47430;BME280;33181;49.246;7.372;2023-08-24T06:46:31;98845.13;;;23.38;64.79
47430;BME280;33181;49.246;7.372;2023-08-24T06:48:57;98847.66;;;23.79;63.79
47430;BME280;33181;49.246;7.372;2023-08-24T06:51:24;98858.59;;;23.71;62.92
47430;BME280;33181;49.246;7.372;2023-08-24T06:53:50;98861.06;;;23.86;62.79
47430;BME280;33181;49.246;7.372;2023-08-24T06:56:15;98872.41;;;24.28;61.86
47430;BME280;33181;49.246;7.372;2023-08-24T06:58:43;98884.69;;;24.82;61.29
47430;BME280;33181;49.246;7.372;2023-08-24T07:01:09;98883.88;;;25.27;60.23
47430;BME280;33181;49.246;7.372;2023-08-24T07:03:34;98881.28;;;25.77;57.97
47430;BME280;33181;49.246;7.372;2023-08-24T07:06:00;98881.44;;;26.07;56.28
47430;BME280;33181;49.246;7.372;2023-08-24T07:08:26;98876.41;;;26.17;56.15
47430;BME280;33181;49.246;7.372;2023-08-24T07:10:51;98873.81;;;26.04;55.88
47430;BME280;33181;49.246;7.372;2023-08-24T07:13:17;98871.53;;;26.07;57.19
47430;BME280;33181;49.246;7.372;2023-08-24T07:15:43;98875.59;;;26.17;56.81
47430;BME280;33181;49.246;7.372;2023-08-24T07:18:10;98876.69;;;26.09;56.40
47430;BME280;33181;49.246;7.372;2023-08-24T07:20:37;98872.91;;;25.92;56.84
47430;BME280;33181;49.246;7.372;2023-08-24T07:23:03;98873.19;;;25.52;56.68
47430;BME280;33181;49.246;7.372;2023-08-24T07:25:32;98863.31;;;25.39;56.76
47430;BME280;33181;49.246;7.372;2023-08-24T07:27:58;98848.75;;;25.78;56.96
47430;BME280;33181;49.246;7.372;2023-08-24T07:30:26;98852.78;;;25.94;55.30
47430;BME280;33181;49.246;7.372;2023-08-24T07:32:53;98843.06;;;25.93;55.86
47430;BME280;33181;49.246;7.372;2023-08-24T07:35:19;98830.50;;;25.87;55.33
47430;BME280;33181;49.246;7.372;2023-08-24T07:37:49;98823.31;;;25.74;56.50
47430;BME280;33181;49.246;7.372;2023-08-24T07:40:15;98828.38;;;25.39;56.94
47430;BME280;33181;49.246;7.372;2023-08-24T07:42:52;98823.09;;;25.26;56.67
47430;BME280;33181;49.246;7.372;2023-08-24T07:45:20;98821.84;;;25.22;57.63
47430;BME280;33181;49.246;7.372;2023-08-24T07:47:46;98812.50;;;25.56;56.41
47430;BME280;33181;49.246;7.372;2023-08-24T07:50:12;98811.75;;;25.74;57.35
47430;BME280;33181;49.246;7.372;2023-08-24T07:52:39;98806.50;;;25.85;56.17
47430;BME280;33181;49.246;7.372;2023-08-24T07:55:06;98808.88;;;25.69;55.98
47430;BME280;33181;49.246;7.372;2023-08-24T07:57:36;98804.50;;;25.74;55.57
47430;BME280;33181;49.246;7.372;2023-08-24T08:00:04;98810.88;;;25.80;55.28
47430;BME280;33181;49.246;7.372;2023-08-24T08:02:30;98815.53;;;25.91;55.68
47430;BME280;33181;49.246;7.372;2023-08-24T08:04:58;98794.31;;;25.83;55.89
47430;BME280;33181;49.246;7.372;2023-08-24T08:07:25;98798.22;;;26.05;54.24
47430;BME280;33181;49.246;7.372;2023-08-24T08:09:51;98787.78;;;25.91;55.04
47430;BME280;33181;49.246;7.372;2023-08-24T08:12:17;98773.91;;;26.12;54.28
47430;BME280;33181;49.246;7.372;2023-08-24T08:14:43;98769.63;;;26.23;54.99
47430;BME280;33181;49.246;7.372;2023-08-24T08:17:08;98755.34;;;26.59;54.38
47430;BME280;33181;49.246;7.372;2023-08-24T08:19:34;98745.19;;;26.61;53.53
47430;BME280;33181;49.246;7.372;2023-08-24T08:22:04;98743.59;;;26.35;54.25
47430;BME280;33181;49.246;7.372;2023-08-24T08:24:30;98742.88;;;26.76;54.65
47430;BME280;33181;49.246;7.372;2023-08-24T08:26:56;98747.66;;;26.93;53.97
47430;BME280;33181;49.246;7.372;2023-08-24T08:29:22;98762.44;;;27.44;52.15
47430;BME280;33181;49.246;7.372;2023-08-24T08:31:48;98770.78;;;27.54;52.21
47430;BME280;33181;49.246;7.372;2023-08-24T08:34:14;98773.72;;;27.76;51.18
47430;BME280;33181;49.246;7.372;2023-08-24T08:36:40;98782.69;;;28.00;50.24
47430;BME280;33181;49.246;7.372;2023-08-24T08:39:06;98778.22;;;27.94;50.59
47430;BME280;33181;49.246;7.372;2023-08-24T08:41:38;98776.88;;;27.49;51.15
47430;BME280;33181;49.246;7.372;2023-08-24T08:44:07;98780.50;;;27.55;50.82
47430;BME280;33181;49.246;7.372;2023-08-24T08:46:34;98766.31;;;27.48;51.22
47430;BME280;33181;49.246;7.372;2023-08-24T08:49:01;98749.88;;;27.61;49.49
47430;BME280;33181;49.246;7.372;2023-08-24T08:51:27;98742.94;;;27.42;50.42
47430;BME280;33181;49.246;7.372;2023-08-24T08:53:53;98747.78;;;27.52;51.67
47430;BME280;33181;49.246;7.372;2023-08-24T08:56:20;98749.19;;;27.54;50.75
47430;BME280;33181;49.246;7.372;2023-08-24T08:58:46;98738.03;;;27.74;49.74
47430;BME280;33181;49.246;7.372;2023-08-24T09:01:14;98734.41;;;27.68;50.56
47430;BME280;33181;49.246;7.372;2023-08-24T09:03:40;98736.06;;;27.69;50.49
47430;BME280;33181;49.246;7.372;2023-08-24T09:06:06;98723.34;;;28.05;50.53
47430;BME280;33181;49.246;7.372;2023-08-24T09:08:32;98712.59;;;28.46;48.39
47430;BME280;33181;49.246;7.372;2023-08-24T09:11:01;98709.84;;;28.05;49.54
47430;BME280;33181;49.246;7.372;2023-08-24T09:13:28;98701.50;;;28.18;49.69
47430;BME280;33181;49.246;7.372;2023-08-24T09:16:02;98688.03;;;28.35;49.11
47430;BME280;33181;49.246;7.372;2023-08-24T09:18:37;98691.44;;;28.31;48.33
47430;BME280;33181;49.246;7.372;2023-08-24T09:21:09;98678.16;;;28.01;48.56
47430;BME280;33181;49.246;7.372;2023-08-24T09:23:35;98672.75;;;28.01;50.14
47430;BME280;33181;49.246;7.372;2023-08-24T09:26:01;98668.31;;;27.94;49.17
47430;BME280;33181;49.246;7.372;2023-08-24T09:28:28;98654.66;;;28.01;48.00
47430;BME280;33181;49.246;7.372;2023-08-24T09:30:54;98641.59;;;28.22;48.78
47430;BME280;33181;49.246;7.372;2023-08-24T09:33:22;98644.00;;;28.35;48.57
47430;BME280;33181;49.246;7.372;2023-08-24T09:35:55;98644.16;;;28.57;48.72
47430;BME280;33181;49.246;7.372;2023-08-24T09:38:27;98640.75;;;28.78;47.99
47430;BME280;33181;49.246;7.372;2023-08-24T09:40:55;98635.28;;;29.07;47.66
47430;BME280;33181;49.246;7.372;2023-08-24T09:43:22;98634.53;;;29.50;46.99
47430;BME280;33181;49.246;7.372;2023-08-24T09:45:52;98638.56;;;29.65;45.69
47430;BME280;33181;49.246;7.372;2023-08-24T09:48:19;98638.25;;;29.61;45.35
47430;BME280;33181;49.246;7.372;2023-08-24T09:50:47;98631.88;;;29.72;44.90
47430;BME280;33181;49.246;7.372;2023-08-24T09:53:21;98624.72;;;29.83;44.45
47430;BME280;33181;49.246;7.372;2023-08-24T09:56:08;98606.28;;;29.80;44.46
47430;BME280;33181;49.246;7.372;2023-08-24T09:58:34;98598.81;;;29.48;43.70
47430;BME280;33181;49.246;7.372;2023-08-24T10:01:02;98606.41;;;29.51;43.68
47430;BME280;33181;49.246;7.372;2023-08-24T10:03:30;98587.22;;;29.53;43.54
47430;BME280;33181;49.246;7.372;2023-08-24T10:05:58;98594.03;;;29.77;43.63
47430;BME280;33181;49.246;7.372;2023-08-24T10:08:29;98591.66;;;29.81;43.39
47430;BME280;33181;49.246;7.372;2023-08-24T10:10:59;98588.72;;;30.10;42.62
47430;BME280;33181;49.246;7.372;2023-08-24T10:14:02;98584.59;;;30.29;42.32
47430;BME280;33181;49.246;7.372;2023-08-24T10:16:34;98582.63;;;30.52;43.40
47430;BME280;33181;49.246;7.372;2023-08-24T10:19:02;98573.28;;;30.64;42.41
47430;BME280;33181;49.246;7.372;2023-08-24T10:21:31;98575.06;;;30.86;42.36
47430;BME280;33181;49.246;7.372;2023-08-24T10:23:57;98577.56;;;30.92;41.13
47430;BME280;33181;49.246;7.372;2023-08-24T10:26:24;98569.34;;;30.50;41.95
47430;BME280;33181;49.246;7.372;2023-08-24T10:28:50;98566.78;;;30.33;42.84
47430;BME280;33181;49.246;7.372;2023-08-24T10:31:20;98564.66;;;30.40;42.70
47430;BME280;33181;49.246;7.372;2023-08-24T10:33:46;98583.56;;;30.35;40.96
47430;BME280;33181;49.246;7.372;2023-08-24T10:36:13;98582.84;;;30.45;39.45
47430;BME280;33181;49.246;7.372;2023-08-24T10:38:43;98592.72;;;30.56;40.04
47430;BME280;33181;49.246;7.372;2023-08-24T10:41:10;98596.38;;;30.72;41.30
47430;BME280;33181;49.246;7.372;2023-08-24T10:43:41;98582.56;;;30.74;41.53
47430;BME280;33181;49.246;7.372;2023-08-24T10:46:14;98584.22;;;30.47;42.13
47430;BME280;33181;49.246;7.372;2023-08-24T10:53:45;98583.34;;;31.01;41.82
47430;BME280;33181;49.246;7.372;2023-08-24T10:56:15;98576.13;;;30.80;42.38
47430;BME280;33181;49.246;7.372;2023-08-24T10:58:46;98566.69;;;30.87;42.45
47430;BME280;33181;49.246;7.372;2023-08-24T11:01:18;98569.94;;;30.84;43.21
47430;BME280;33181;49.246;7.372;2023-08-24T11:03:55;98558.91;;;30.96;42.96
47430;BME280;33181;49.246;7.372;2023-08-24T11:06:22;98552.19;;;30.77;43.29
47430;BME280;33181;49.246;7.372;2023-08-24T11:08:49;98553.06;;;30.77;43.29
47430;BME280;33181;49.246;7.372;2023-08-24T11:11:23;98546.75;;;30.71;43.53
47430;BME280;33181;49.246;7.372;2023-08-24T11:14:19;98540.63;;;30.54;43.80
47430;BME280;33181;49.246;7.372;2023-08-24T11:16:48;98538.84;;;30.65;44.15
47430;BME280;33181;49.246;7.372;2023-08-24T11:19:15;98527.31;;;30.47;45.07
47430;BME280;33181;49.246;7.372;2023-08-24T11:21:44;98513.72;;;30.42;45.28
47430;BME280;33181;49.246;7.372;2023-08-24T11:24:13;98510.56;;;30.56;45.10
47430;BME280;33181;49.246;7.372;2023-08-24T11:26:44;98504.41;;;30.65;44.52
47430;BME280;33181;49.246;7.372;2023-08-24T11:29:11;98508.06;;;30.49;44.83
47430;BME280;33181;49.246;7.372;2023-08-24T11:31:37;98523.50;;;30.48;45.63
47430;BME280;33181;49.246;7.372;2023-08-24T11:34:04;98512.72;;;30.54;45.39
47430;BME280;33181;49.246;7.372;2023-08-24T11:37:03;98524.25;;;30.71;44.84
47430;BME280;33181;49.246;7.372;2023-08-24T11:39:28;98520.81;;;30.81;44.53
47430;BME280;33181;49.246;7.372;2023-08-24T11:42:02;98520.97;;;31.06;45.49
47430;BME280;33181;49.246;7.372;2023-08-24T11:44:29;98514.47;;;31.12;45.51
47430;BME280;33181;49.246;7.372;2023-08-24T11:47:00;98507.19;;;31.18;45.26
47430;BME280;33181;49.246;7.372;2023-08-24T11:49:26;98496.06;;;31.20;46.83
47430;BME280;33181;49.246;7.372;2023-08-24T11:51:52;98493.16;;;31.36;45.39
47430;BME280;33181;49.246;7.372;2023-08-24T11:54:21;98476.94;;;31.47;45.29
47430;BME280;33181;49.246;7.372;2023-08-24T11:56:47;98455.47;;;31.55;45.20
47430;BME280;33181;49.246;7.372;2023-08-24T11:59:13;98446.28;;;31.56;43.43
47430;BME280;33181;49.246;7.372;2023-08-24T12:01:41;98448.19;;;31.66;45.10
47430;BME280;33181;49.246;7.372;2023-08-24T12:04:08;98450.16;;;31.96;45.23
47430;BME280;33181;49.246;7.372;2023-08-24T12:06:34;98439.00;;;32.34;44.52
47430;BME280;33181;49.246;7.372;2023-08-24T12:09:00;98437.38;;;32.58;43.42
47430;BME280;33181;49.246;7.372;2023-08-24T12:11:26;98438.44;;;32.67;43.37
47430;BME280;33181;49.246;7.372;2023-08-24T12:13:55;98430.56;;;32.61;41.98
47430;BME280;33181;49.246;7.372;2023-08-24T12:16:22;98426.72;;;32.72;41.67
47430;BME280;33181;49.246;7.372;2023-08-24T12:18:57;98443.81;;;32.93;41.44
47430;BME280;33181;49.246;7.372;2023-08-24T12:21:26;98452.06;;;32.57;41.42
47430;BME280;33181;49.246;7.372;2023-08-24T12:24:04;98457.47;;;32.67;41.66
47430;BME280;33181;49.246;7.372;2023-08-24T12:26:35;98463.75;;;32.52;42.13
47430;BME280;33181;49.246;7.372;2023-08-24T12:29:08;98472.16;;;32.41;41.98
47430;BME280;33181;49.246;7.372;2023-08-24T12:31:35;98479.81;;;32.13;42.36
47430;BME280;33181;49.246;7.372;2023-08-24T12:34:03;98489.28;;;32.31;42.56
47430;BME280;33181;49.246;7.372;2023-08-24T12:36:33;98498.81;;;32.18;42.95
47430;BME280;33181;49.246;7.372;2023-08-24T12:39:01;98508.06;;;32.07;42.92
47430;BME280;33181;49.246;7.372;2023-08-24T12:41:29;98510.75;;;32.12;43.51
47430;BME280;33181;49.246;7.372;2023-08-24T12:43:55;98508.88;;;32.23;43.63
47430;BME280;33181;49.246;7.372;2023-08-24T12:46:21;98502.63;;;32.38;43.41
47430;BME280;33181;49.246;7.372;2023-08-24T12:48:47;98506.44;;;32.37;43.18
47430;BME280;33181;49.246;7.372;2023-08-24T12:51:12;98508.59;;;32.40;42.93
47430;BME280;33181;49.246;7.372;2023-08-24T12:53:38;98496.13;;;32.44;42.24
47430;BME280;33181;49.246;7.372;2023-08-24T12:56:04;98483.00;;;32.82;41.87
47430;BME280;33181;49.246;7.372;2023-08-24T12:58:30;98468.59;;;32.86;41.76
47430;BME280;33181;49.246;7.372;2023-08-24T13:00:56;98463.16;;;32.86;41.82
47430;BME280;33181;49.246;7.372;2023-08-24T13:03:22;98466.56;;;33.28;42.43
47430;BME280;33181;49.246;7.372;2023-08-24T13:05:49;98488.25;;;33.53;42.51
47430;BME280;33181;49.246;7.372;2023-08-24T13:08:14;98500.78;;;33.49;40.98
47430;BME280;33181;49.246;7.372;2023-08-24T13:10:40;98505.19;;;33.45;41.72